Time;durP1;ratioP1;P1;durP2;ratioP2;P2;SDS_P1;SDS_P2;PMS_P1;PMS_P2;Temp;Humidity;BMP_temperature;BMP_pressure;BME280_temperature;BME280_humidity;BME280_pressure;Samples;Min_cycle;Max_cycle;Signal;HPM_P1;HPM_P2
2021/06/16 00:01:08;;;;;;;7.60;6.73;;;;;;;19.07;77.79;100120.56;1848205;75;21049;-85
2021/06/16 00:03:34;;;;;;;7.10;6.40;;;;;;;19.07;77.83;100132.19;1859177;75;21096;-88
2021/06/16 00:06:01;;;;;;;7.50;6.77;;;;;;;19.07;77.80;100127.34;1845750;77;20979;-86
2021/06/16 00:08:27;;;;;;;8.87;6.70;;;;;;;19.08;77.81;100127.56;1811067;77;21085;-87
2021/06/16 00:10:54;;;;;;;7.07;6.40;;;;;;;19.07;77.82;100136.81;1850264;76;22338;-88
2021/06/16 00:13:21;;;;;;;7.53;6.60;;;;;;;19.07;77.89;100140.88;1823396;76;21559;-74
2021/06/16 00:15:50;;;;;;;7.60;6.87;;;;;;;19.06;77.92;100147.41;1828141;76;22005;-74
2021/06/16 00:18:17;;;;;;;7.03;6.43;;;;;;;19.05;77.95;100154.74;1829883;76;21022;-74
2021/06/16 00:20:43;;;;;;;9.10;6.90;;;;;;;19.03;77.99;100153.47;1836244;76;21033;-75
2021/06/16 00:23:09;;;;;;;7.23;6.40;;;;;;;19.03;77.95;100159.67;1834038;76;21470;-75
2021/06/16 00:25:36;;;;;;;7.10;6.40;;;;;;;19.05;77.87;100157.98;1832588;76;21072;-74
2021/06/16 00:28:03;;;;;;;8.90;6.27;;;;;;;19.11;78.02;100166.17;1833389;76;21105;-74
2021/06/16 00:30:31;;;;;;;8.63;6.20;;;;;;;19.10;78.31;100164.59;1830785;76;21007;-74
2021/06/16 00:32:57;;;;;;;6.97;6.30;;;;;;;19.10;78.28;100168.08;1836391;76;21558;-74
2021/06/16 00:35:24;;;;;;;7.43;6.37;;;;;;;19.14;78.07;100162.81;1833035;76;21084;-74
2021/06/16 00:37:52;;;;;;;6.90;6.20;;;;;;;19.18;77.77;100159.69;1854549;75;21065;-74
2021/06/16 00:40:23;;;;;;;6.73;6.03;;;;;;;19.20;77.33;100158.81;1802591;77;21545;-74
2021/06/16 00:42:51;;;;;;;7.63;6.93;;;;;;;19.21;77.02;100159.83;1846941;76;21000;-73
2021/06/16 00:45:18;;;;;;;7.03;6.33;;;;;;;19.23;76.69;100164.15;1843870;76;20983;-74
2021/06/16 00:47:45;;;;;;;7.20;6.50;;;;;;;19.23;76.62;100173.06;1839608;76;20892;-75
2021/06/16 00:50:12;;;;;;;7.17;6.47;;;;;;;19.23;76.71;100184.45;1839166;76;20997;-75
2021/06/16 00:52:39;;;;;;;8.13;6.73;;;;;;;19.23;76.84;100187.95;1839698;76;21996;-74
2021/06/16 00:55:07;;;;;;;6.93;6.23;;;;;;;19.23;76.83;100197.43;1833587;76;21461;-74
2021/06/16 00:57:34;;;;;;;10.10;7.17;;;;;;;19.22;76.90;100203.97;1832666;78;21120;-74
2021/06/16 01:00:12;;;;;;;7.93;6.50;;;;;;;19.13;77.09;100207.26;1833033;76;21030;-73
2021/06/16 01:03:03;;;;;;;8.20;7.40;;;;;;;19.10;77.42;100201.13;1830082;76;20962;-74
2021/06/16 01:05:51;;;;;;;10.75;7.67;;;;;;;19.13;77.59;100205.91;1842646;76;21126;-73
2021/06/16 01:08:24;;;;;;;7.93;7.00;;;;;;;19.17;77.75;100209.55;1843890;76;20943;-74
2021/06/16 01:10:51;;;;;;;8.70;7.57;;;;;;;19.23;77.82;100206.91;1840322;76;20982;-74
2021/06/16 01:16:46;;;;;;;8.53;7.23;;;;;;;19.44;77.45;100194.80;1848208;76;22913;-73
2021/06/16 01:19:52;;;;;;;9.28;8.00;;;;;;;19.44;77.09;100189.37;1848073;75;21532;-73
2021/06/16 01:22:27;;;;;;;8.97;7.60;;;;;;;19.44;76.79;100181.25;1847999;75;21917;-75
2021/06/16 01:24:55;;;;;;;9.83;7.67;;;;;;;19.42;76.67;100188.92;1837207;76;21074;-74
2021/06/16 01:27:22;;;;;;;8.70;7.17;;;;;;;19.41;76.67;100188.14;1791159;77;21046;-74
2021/06/16 01:29:49;;;;;;;7.83;6.90;;;;;;;19.42;76.65;100192.98;1815279;75;21066;-74
2021/06/16 01:32:16;;;;;;;8.80;7.40;;;;;;;19.43;76.57;100202.69;1851040;75;21106;-74
2021/06/16 01:34:42;;;;;;;8.57;7.67;;;;;;;19.47;76.46;100202.84;1848768;75;21162;-74
2021/06/16 01:37:09;;;;;;;8.20;7.40;;;;;;;19.51;76.23;100205.91;1839800;76;21488;-74
2021/06/16 01:39:37;;;;;;;9.40;7.80;;;;;;;19.54;75.98;100205.83;1851763;75;21039;-74
2021/06/16 01:42:12;;;;;;;8.57;7.57;;;;;;;19.59;75.84;100198.89;1850308;75;21107;-74
2021/06/16 01:44:39;;;;;;;10.10;7.60;;;;;;;19.64;75.81;100194.66;1851044;76;21047;-73
2021/06/16 01:47:06;;;;;;;9.00;8.10;;;;;;;19.67;75.69;100190.73;1829455;77;21506;-74
2021/06/16 01:49:33;;;;;;;11.17;8.10;;;;;;;19.65;75.64;100186.21;1850711;76;21106;-74
2021/06/16 01:52:00;;;;;;;8.53;7.70;;;;;;;19.62;75.56;100191.47;1839273;77;21070;-74
2021/06/16 01:54:27;;;;;;;8.43;7.63;;;;;;;19.59;75.50;100187.48;1811143;77;21082;-74
2021/06/16 01:56:54;;;;;;;8.40;7.50;;;;;;;19.59;75.50;100190.77;1849559;76;21000;-75
2021/06/16 01:59:21;;;;;;;9.17;8.13;;;;;;;19.60;75.55;100189.63;1818155;77;21549;-75
2021/06/16 02:01:49;;;;;;;8.67;7.40;;;;;;;19.60;75.60;100188.27;1849672;77;21020;-74
2021/06/16 02:04:16;;;;;;;9.10;8.00;;;;;;;19.59;75.83;100183.98;1835219;75;21669;-74
2021/06/16 02:06:47;;;;;;;9.93;7.90;;;;;;;19.55;76.07;100180.34;1842244;75;20999;-74
2021/06/16 02:09:15;;;;;;;9.67;7.87;;;;;;;19.51;76.33;100176.68;1857653;75;21013;-75
2021/06/16 02:11:43;;;;;;;8.33;7.40;;;;;;;19.47;76.63;100183.31;1851174;76;21105;-75
2021/06/16 02:14:16;;;;;;;8.67;7.70;;;;;;;19.48;76.78;100186.81;1850801;76;21014;-73
2021/06/16 02:16:54;;;;;;;8.93;8.03;;;;;;;19.48;76.94;100194.41;1824154;76;21035;-74
2021/06/16 02:19:24;;;;;;;10.10;8.33;;;;;;;19.49;77.16;100183.79;1841785;76;21050;-75
2021/06/16 02:21:54;;;;;;;8.90;8.00;;;;;;;19.50;77.42;100195.42;1830292;77;21057;-74
2021/06/16 02:24:20;;;;;;;8.60;7.80;;;;;;;19.49;77.63;100193.84;1839857;77;21088;-75
2021/06/16 02:26:48;;;;;;;9.10;8.17;;;;;;;19.50;77.79;100202.98;1831658;76;21552;-75
2021/06/16 02:29:14;;;;;;;8.70;7.80;;;;;;;19.50;77.91;100204.89;1837603;77;21011;-74
2021/06/16 02:31:43;;;;;;;8.63;7.77;;;;;;;19.49;77.92;100206.81;1826097;76;21558;-74
2021/06/16 02:34:10;;;;;;;10.83;7.90;;;;;;;19.42;77.76;100203.26;1823664;77;21512;-74
2021/06/16 02:36:42;;;;;;;11.20;8.17;;;;;;;19.34;77.60;100204.06;1834355;76;21953;-74
2021/06/16 02:39:14;;;;;;;8.50;7.70;;;;;;;19.25;77.58;100206.56;1843146;77;21026;-74
2021/06/16 02:41:42;;;;;;;9.03;7.67;;;;;;;19.18;77.72;100207.89;1832698;76;21019;-73
2021/06/16 02:44:10;;;;;;;9.63;8.70;;;;;;;19.15;77.94;100203.65;1836478;77;21054;-74
2021/06/16 02:46:37;;;;;;;9.83;8.37;;;;;;;19.16;78.08;100210.67;1811820;77;21089;-73
2021/06/16 02:49:08;;;;;;;10.13;8.60;;;;;;;19.19;78.17;100212.73;1840428;76;21018;-74
2021/06/16 02:51:39;;;;;;;9.35;8.45;;;;;;;19.19;78.30;100210.03;1830391;76;21420;-74
2021/06/16 02:54:09;;;;;;;9.40;8.58;;;;;;;19.18;78.15;100212.48;1832324;77;21015;-74
2021/06/16 02:56:38;;;;;;;10.53;9.53;;;;;;;19.17;77.99;100219.02;1810348;77;21101;-74
2021/06/16 02:59:05;;;;;;;11.57;10.37;;;;;;;19.10;77.87;100213.31;1804266;77;21022;-74
2021/06/16 03:01:33;;;;;;;11.97;10.77;;;;;;;19.06;77.82;100209.67;1837225;77;21070;-74
2021/06/16 03:03:59;;;;;;;11.13;10.13;;;;;;;19.03;77.81;100213.81;1834376;76;21058;-74
2021/06/16 03:06:26;;;;;;;11.63;10.43;;;;;;;19.02;77.90;100210.05;1837551;76;21121;-74
2021/06/16 03:08:55;;;;;;;10.90;9.80;;;;;;;19.00;78.00;100217.16;1835615;77;21092;-74
2021/06/16 03:11:24;;;;;;;10.30;9.37;;;;;;;18.98;78.02;100217.46;1844011;77;21101;-74
2021/06/16 03:13:51;;;;;;;11.47;10.27;;;;;;;18.98;78.03;100220.17;1841351;76;21108;-74
2021/06/16 03:16:18;;;;;;;9.77;8.87;;;;;;;18.98;78.07;100222.08;1828033;77;20984;-74
2021/06/16 03:18:45;;;;;;;10.97;9.83;;;;;;;19.00;78.15;100220.42;1832586;77;21045;-74
2021/06/16 03:21:13;;;;;;;11.13;9.63;;;;;;;19.02;78.20;100215.47;1802761;77;21105;-74
2021/06/16 03:23:39;;;;;;;10.83;9.77;;;;;;;19.07;78.19;100216.66;1835573;76;21085;-74
2021/06/16 03:26:06;;;;;;;12.13;11.00;;;;;;;19.11;78.18;100219.75;1810665;77;21915;-74
2021/06/16 03:28:33;;;;;;;10.70;9.60;;;;;;;19.18;78.17;100220.07;1832359;76;21026;-74
2021/06/16 03:31:00;;;;;;;11.47;9.97;;;;;;;19.24;78.10;100224.73;1823856;76;21121;-75
2021/06/16 03:33:28;;;;;;;11.23;10.13;;;;;;;19.27;78.00;100228.15;1834197;77;21118;-74
2021/06/16 03:35:54;;;;;;;10.93;9.83;;;;;;;19.31;77.79;100226.94;1835792;77;21663;-74
2021/06/16 03:38:21;;;;;;;10.77;9.70;;;;;;;19.32;77.60;100230.70;1841129;76;21116;-74
2021/06/16 03:40:50;;;;;;;10.53;9.43;;;;;;;19.33;77.48;100232.28;1828603;77;21077;-75
2021/06/16 03:43:17;;;;;;;10.33;9.30;;;;;;;19.35;77.42;100240.88;1805956;77;21122;-74
2021/06/16 03:45:44;;;;;;;11.47;10.23;;;;;;;19.37;77.37;100244.61;1808612;77;21045;-74
2021/06/16 03:48:14;;;;;;;11.77;10.67;;;;;;;19.38;77.33;100245.66;1838248;77;21014;-75
2021/06/16 03:50:40;;;;;;;11.47;10.27;;;;;;;19.42;77.28;100254.72;1838485;76;21974;-75
2021/06/16 03:53:12;;;;;;;11.83;9.93;;;;;;;19.42;77.14;100252.01;1831276;76;21036;-75
2021/06/16 03:55:42;;;;;;;11.68;10.58;;;;;;;19.45;77.05;100254.07;1835084;77;21054;-74
2021/06/16 03:58:10;;;;;;;11.07;9.97;;;;;;;19.48;76.94;100247.75;1842007;77;21132;-74
2021/06/16 04:00:39;;;;;;;11.60;10.50;;;;;;;19.52;76.82;100252.78;1835130;77;21629;-74
2021/06/16 04:03:06;;;;;;;14.13;10.50;;;;;;;19.55;76.62;100252.14;1833313;77;21165;-74
2021/06/16 04:05:34;;;;;;;10.87;9.80;;;;;;;19.62;76.37;100254.56;1832302;77;21018;-74
2021/06/16 04:08:02;;;;;;;11.30;10.10;;;;;;;19.67;75.74;100246.84;1841124;77;21070;-74
2021/06/16 04:10:29;;;;;;;10.53;9.43;;;;;;;19.68;75.30;100253.87;1827863;77;21026;-74
2021/06/16 04:12:55;;;;;;;11.07;9.97;;;;;;;19.70;74.95;100254.31;1832823;77;21034;-74
2021/06/16 04:15:24;;;;;;;11.13;9.97;;;;;;;19.71;74.70;100251.86;1842559;77;21520;-75
2021/06/16 04:17:53;;;;;;;11.03;9.93;;;;;;;19.71;74.51;100251.86;1830930;77;20960;-75
2021/06/16 04:20:20;;;;;;;10.93;9.93;;;;;;;19.76;74.26;100257.08;1836260;77;21034;-75
2021/06/16 04:22:47;;;;;;;11.13;9.97;;;;;;;19.77;73.97;100257.87;1838747;77;21085;-75
2021/06/16 04:25:13;;;;;;;10.90;9.50;;;;;;;19.77;73.84;100259.23;1845956;77;21148;-74
2021/06/16 04:27:40;;;;;;;10.87;9.77;;;;;;;19.73;73.91;100255.59;1841176;76;21060;-75
2021/06/16 04:30:11;;;;;;;10.13;9.13;;;;;;;19.69;73.95;100258.16;1830868;77;20987;-75
2021/06/16 04:32:38;;;;;;;10.17;9.17;;;;;;;19.72;73.99;100254.80;1838195;76;21022;-74
2021/06/16 04:35:09;;;;;;;10.93;9.83;;;;;;;19.75;73.78;100260.13;1835884;77;21042;-75
2021/06/16 04:37:36;;;;;;;10.70;9.60;;;;;;;19.76;73.89;100266.57;1835651;77;21042;-75
2021/06/16 04:40:06;;;;;;;10.90;9.83;;;;;;;19.80;73.82;100259.37;1836686;76;21479;-75
2021/06/16 04:42:33;;;;;;;11.03;9.93;;;;;;;19.84;73.72;100258.97;1836006;77;21078;-75
2021/06/16 04:45:00;;;;;;;10.20;9.20;;;;;;;19.86;73.42;100264.05;1839088;76;21023;-75
2021/06/16 04:47:27;;;;;;;10.63;9.63;;;;;;;19.86;73.28;100269.48;1830786;77;21102;-74
2021/06/16 04:49:54;;;;;;;10.83;9.73;;;;;;;19.80;72.91;100264.80;1827099;76;20990;-75
2021/06/16 04:52:21;;;;;;;10.80;9.70;;;;;;;19.77;73.04;100267.36;1829680;77;22241;-74
2021/06/16 04:54:48;;;;;;;11.93;10.67;;;;;;;19.75;73.25;100263.63;1824456;76;21082;-75
2021/06/16 04:57:14;;;;;;;13.53;12.23;;;;;;;19.77;73.29;100265.44;1843078;77;21799;-74
2021/06/16 04:59:41;;;;;;;13.33;11.67;;;;;;;19.81;73.21;100265.05;1831226;76;21051;-72
2021/06/16 05:02:08;;;;;;;12.30;11.00;;;;;;;19.87;73.21;100264.28;1839927;77;21034;-75
2021/06/16 05:04:35;;;;;;;12.30;11.00;;;;;;;19.90;73.19;100261.70;1797947;77;21889;-74
2021/06/16 05:07:02;;;;;;;11.37;10.27;;;;;;;19.94;73.02;100263.77;1789813;79;20988;-74
2021/06/16 05:09:28;;;;;;;11.67;10.07;;;;;;;19.97;72.64;100265.83;1754691;80;21081;-76
2021/06/16 05:11:55;;;;;;;10.70;9.60;;;;;;;19.94;72.06;100267.84;1764728;79;21079;-74
2021/06/16 05:14:23;;;;;;;12.33;10.47;;;;;;;19.91;72.11;100266.59;1765359;79;21063;-75
2021/06/16 05:16:54;;;;;;;12.37;9.60;;;;;;;19.96;72.41;100273.73;1767632;79;21052;-75
2021/06/16 05:19:23;;;;;;;11.17;10.17;;;;;;;20.04;72.41;100272.88;1758325;80;21621;-76
2021/06/16 05:21:49;;;;;;;10.70;9.70;;;;;;;20.11;72.18;100282.67;1776488;79;21167;-75
2021/06/16 05:24:16;;;;;;;11.67;10.63;;;;;;;20.13;71.75;100285.84;1800156;79;21665;-74
2021/06/16 05:26:44;;;;;;;11.20;10.00;;;;;;;20.15;71.69;100286.31;1763264;79;21023;-75
2021/06/16 05:29:11;;;;;;;11.23;10.17;;;;;;;20.20;71.32;100290.18;1767244;80;21120;-75
2021/06/16 05:31:39;;;;;;;10.17;9.20;;;;;;;20.24;71.32;100284.35;1768238;79;21124;-74
2021/06/16 05:34:05;;;;;;;10.50;9.50;;;;;;;20.31;71.26;100282.48;1768450;79;21680;-73
2021/06/16 05:36:32;;;;;;;9.83;8.93;;;;;;;20.38;70.93;100287.61;1761049;79;21566;-75
2021/06/16 05:39:00;;;;;;;9.63;8.63;;;;;;;20.45;70.50;100284.94;1798516;79;21033;-74
2021/06/16 05:41:26;;;;;;;9.87;8.80;;;;;;;20.52;70.22;100290.09;1776849;79;21115;-74
2021/06/16 05:43:54;;;;;;;10.33;9.20;;;;;;;20.60;70.12;100293.88;1773478;79;21584;-75
2021/06/16 05:46:21;;;;;;;10.97;9.33;;;;;;;20.72;69.86;100298.00;1760013;80;21105;-75
2021/06/16 05:48:47;;;;;;;12.77;9.57;;;;;;;20.84;69.57;100298.07;1771006;79;21548;-75
2021/06/16 05:51:14;;;;;;;9.57;8.60;;;;;;;20.96;69.45;100302.77;1783936;79;21092;-74
2021/06/16 05:53:41;;;;;;;10.47;9.00;;;;;;;;;;1758740;80;21111;-74
2021/06/16 05:56:10;;;;;;;9.63;8.73;;;;;;;21.31;68.75;100301.07;1767662;79;21107;-75
2021/06/16 05:58:36;;;;;;;9.93;8.93;;;;;;;21.49;67.88;100306.59;1768759;79;21085;-74
2021/06/16 06:01:04;;;;;;;10.13;8.83;;;;;;;21.64;66.81;100307.06;1768383;79;21551;-75
2021/06/16 06:03:31;;;;;;;11.83;10.17;;;;;;;21.69;66.36;100304.93;1762956;79;21043;-74
2021/06/16 06:05:58;;;;;;;10.27;9.20;;;;;;;21.77;66.26;100305.37;1771304;79;21543;-75
2021/06/16 06:08:25;;;;;;;10.10;9.10;;;;;;;21.91;66.00;100309.13;1759851;80;21074;-74
2021/06/16 06:10:53;;;;;;;10.27;9.23;;;;;;;22.06;65.67;100313.11;1793810;78;21148;-77
2021/06/16 06:13:21;;;;;;;11.53;9.80;;;;;;;22.14;65.25;100309.47;1763001;80;21066;-78
2021/06/16 06:15:48;;;;;;;10.53;9.43;;;;;;;22.23;64.85;100312.89;1791366;78;21047;-84
2021/06/16 06:18:14;;;;;;;11.10;8.77;;;;;;;22.29;64.60;100308.59;1771465;79;22120;-80
2021/06/16 06:20:41;;;;;;;10.23;9.10;;;;;;;22.34;64.23;100311.89;1778904;80;21008;-79
2021/06/16 06:23:08;;;;;;;10.70;9.60;;;;;;;22.35;63.97;100312.68;1781401;78;21109;-80
2021/06/16 06:25:36;;;;;;;10.10;9.10;;;;;;;22.37;64.13;100313.11;1771705;79;21242;-82
2021/06/16 06:28:03;;;;;;;9.73;8.77;;;;;;;22.45;64.09;100308.91;1781719;78;21090;-80
2021/06/16 06:30:30;;;;;;;10.57;9.20;;;;;;;22.53;63.76;100309.91;1782326;79;21522;-79
2021/06/16 06:32:57;;;;;;;9.90;8.00;;;;;;;22.61;63.69;100308.21;1788508;78;21036;-80
2021/06/16 06:35:23;;;;;;;11.63;9.93;;;;;;;22.68;63.52;100311.92;1784611;78;21117;-78
2021/06/16 06:37:50;;;;;;;8.47;7.67;;;;;;;22.71;63.57;100307.16;1778842;79;21550;-78
2021/06/16 06:40:17;;;;;;;7.67;6.87;;;;;;;22.79;63.75;100306.78;1786686;78;21060;-76
2021/06/16 06:42:43;;;;;;;6.90;6.07;;;;;;;22.87;62.26;100309.16;1769021;78;21635;-77
2021/06/16 06:45:11;;;;;;;6.77;6.07;;;;;;;22.89;61.35;100306.29;1781901;78;21035;-78
2021/06/16 06:47:37;;;;;;;6.77;6.13;;;;;;;22.90;60.96;100305.17;1780411;78;21030;-75
2021/06/16 06:50:17;;;;;;;7.63;6.20;;;;;;;22.94;60.93;100314.83;1783932;79;21276;-75
2021/06/16 06:52:43;;;;;;;7.50;6.40;;;;;;;22.97;60.94;100311.42;1783726;78;21845;-77
2021/06/16 06:55:10;;;;;;;12.23;6.43;;;;;;;22.96;60.04;100319.34;1777435;79;21732;-78
2021/06/16 06:57:37;;;;;;;9.10;7.30;;;;;;;22.88;60.25;100306.08;1775779;78;21098;-75
2021/06/16 07:00:06;;;;;;;10.87;6.10;;;;;;;22.77;60.23;100315.06;1775513;80;21098;-73
2021/06/16 07:02:33;;;;;;;12.93;6.20;;;;;;;22.66;60.98;100320.20;1781235;78;21065;-75
2021/06/16 07:05:00;;;;;;;8.77;6.03;;;;;;;22.58;61.01;100311.05;1779269;79;21576;-76
2021/06/16 07:07:26;;;;;;;7.77;5.90;;;;;;;22.55;61.70;100311.73;1776469;79;21137;-74
2021/06/16 07:09:53;;;;;;;6.50;5.30;;;;;;;22.53;61.30;100318.07;1771867;78;21019;-73
2021/06/16 07:12:20;;;;;;;7.47;5.47;;;;;;;22.45;61.00;100312.99;1777662;80;21082;-73
2021/06/16 07:14:46;;;;;;;6.10;5.37;;;;;;;22.41;61.23;100318.91;1778972;80;21027;-74
2021/06/16 07:17:13;;;;;;;9.17;5.50;;;;;;;22.39;61.23;100314.93;1781630;79;21025;-73
2021/06/16 07:19:39;;;;;;;6.53;5.67;;;;;;;22.37;61.06;100322.63;1778369;79;21919;-75
2021/06/16 07:22:06;;;;;;;8.27;5.10;;;;;;;22.35;61.12;100316.19;1782124;79;21062;-72
2021/06/16 07:24:33;;;;;;;5.67;4.97;;;;;;;22.41;61.24;100318.91;1773792;79;21078;-74
2021/06/16 07:26:59;;;;;;;8.73;5.43;;;;;;;22.53;60.98;100323.52;1775466;78;21150;-74
2021/06/16 07:29:26;;;;;;;6.67;5.43;;;;;;;22.59;60.42;100323.52;1775640;79;21078;-75
2021/06/16 07:31:54;;;;;;;9.07;5.50;;;;;;;22.58;60.59;100330.09;1779049;78;21125;-73
2021/06/16 07:34:20;;;;;;;8.50;5.70;;;;;;;22.62;60.83;100331.56;1781825;79;21561;-74
2021/06/16 07:36:48;;;;;;;7.87;5.90;;;;;;;22.64;61.03;100334.17;1789448;78;21078;-74
2021/06/16 07:39:20;;;;;;;6.73;5.47;;;;;;;22.71;60.36;100332.23;1789976;79;21440;-74
2021/06/16 07:41:44;;;;;;;7.50;5.67;;;;;;;22.73;60.30;100336.74;1787695;79;21653;-74
2021/06/16 07:44:11;;;;;;;7.43;5.30;;;;;;;22.76;59.83;100329.25;1743150;79;21117;-74
2021/06/16 07:46:40;;;;;;;9.00;5.73;;;;;;;22.81;59.77;100335.83;1767316;80;21113;-74
2021/06/16 07:49:07;;;;;;;6.13;5.30;;;;;;;22.85;60.01;100323.67;1762354;80;21518;-74
2021/06/16 07:51:34;;;;;;;6.67;5.80;;;;;;;22.91;60.03;100324.45;1762347;80;21042;-72
2021/06/16 07:54:01;;;;;;;8.13;5.60;;;;;;;23.02;60.21;100329.44;1782487;79;21066;-74
2021/06/16 07:56:28;;;;;;;7.57;5.90;;;;;;;23.17;59.98;100332.22;1756188;80;21098;-74
2021/06/16 07:58:54;;;;;;;6.53;5.10;;;;;;;23.31;59.61;100330.44;1773924;79;21104;-74
2021/06/16 08:01:21;;;;;;;8.27;5.20;;;;;;;23.49;59.57;100325.45;1766629;79;21119;-72
2021/06/16 08:03:48;;;;;;;6.57;5.33;;;;;;;23.68;59.21;100321.26;1772022;80;20983;-71
2021/06/16 08:06:15;;;;;;;6.67;5.13;;;;;;;23.83;58.68;100320.52;1777981;79;21048;-72
2021/06/16 08:08:44;;;;;;;5.83;4.50;;;;;;;24.01;58.71;100316.27;1772270;79;21188;-73
2021/06/16 08:11:10;;;;;;;5.50;4.90;;;;;;;24.23;57.45;100316.77;1783545;78;21519;-74
2021/06/16 08:13:38;;;;;;;7.13;4.70;;;;;;;24.39;57.53;100318.90;1776684;78;21628;-74
2021/06/16 08:16:05;;;;;;;5.87;4.43;;;;;;;24.57;56.37;100317.94;1776431;78;21067;-74
2021/06/16 08:18:34;;;;;;;5.23;4.73;;;;;;;24.70;55.46;100319.97;1778170;78;21787;-73
2021/06/16 08:21:01;;;;;;;5.93;4.70;;;;;;;24.79;55.04;100324.66;1777120;78;21140;-74
2021/06/16 08:23:27;;;;;;;5.60;4.47;;;;;;;24.82;55.09;100328.62;1777673;79;21045;-74
2021/06/16 08:25:55;;;;;;;5.73;4.60;;;;;;;24.82;54.64;100329.41;1777410;78;21667;-75
2021/06/16 08:28:22;;;;;;;5.10;4.40;;;;;;;24.82;54.16;100329.41;1776048;78;21014;-75
2021/06/16 08:30:49;;;;;;;5.73;4.47;;;;;;;24.85;54.21;100332.00;1767062;79;21114;-73
2021/06/16 08:33:16;;;;;;;7.90;5.00;;;;;;;24.90;54.14;100330.33;1771094;79;22035;-75
2021/06/16 08:35:43;;;;;;;5.17;4.30;;;;;;;24.93;54.35;100330.98;1769207;79;21617;-74
2021/06/16 08:38:09;;;;;;;6.10;4.23;;;;;;;25.02;54.39;100330.20;1759912;80;21084;-74
2021/06/16 08:40:36;;;;;;;4.87;4.37;;;;;;;25.16;53.65;100326.40;1791949;77;21562;-74
2021/06/16 08:43:03;;;;;;;7.60;4.27;;;;;;;25.28;53.75;100319.99;1782407;78;21144;-73
2021/06/16 08:45:36;;;;;;;6.03;4.50;;;;;;;25.35;52.64;100320.70;1753073;81;21598;-74
2021/06/16 08:48:03;;;;;;;;;;;;;;;25.39;52.35;100322.33;1769957;80;21651;-74
2021/06/16 08:50:30;;;;;;;5.27;4.57;;;;;;;25.46;51.59;100323.83;1763595;80;20183;-73
2021/06/16 08:52:56;;;;;;;6.00;4.10;;;;;;;25.50;51.94;100326.07;1768076;79;21053;-74
2021/06/16 08:55:23;;;;;;;5.80;4.00;;;;;;;25.61;52.28;100332.30;1756205;80;21103;-73
2021/06/16 08:57:50;;;;;;;4.73;3.90;;;;;;;25.69;51.28;100332.63;1758064;79;21532;-74
2021/06/16 09:00:18;;;;;;;3.87;3.17;;;;;;;25.74;50.74;100340.54;1762868;79;21622;-73
2021/06/16 09:02:45;;;;;;;5.00;3.33;;;;;;;25.67;46.83;100345.31;1760462;79;21051;-74
2021/06/16 09:05:12;;;;;;;5.03;3.30;;;;;;;25.64;47.01;100346.63;1764888;80;21589;-73
2021/06/16 09:07:42;;;;;;;4.50;3.40;;;;;;;25.59;46.77;100346.91;1766386;79;21059;-74
2021/06/16 09:10:18;;;;;;;5.63;3.80;;;;;;;25.56;46.92;100351.16;1762072;80;21103;-73
2021/06/16 09:12:58;;;;;;;4.33;3.47;;;;;;;25.59;46.24;100349.64;1757231;80;22170;-74
2021/06/16 09:15:28;;;;;;;5.23;3.10;;;;;;;25.61;46.59;100350.86;1759055;79;21094;-73
2021/06/16 09:18:09;;;;;;;4.70;3.33;;;;;;;25.69;45.98;100347.09;1760967;80;21193;-74
2021/06/16 09:20:47;;;;;;;5.80;2.97;;;;;;;25.70;44.67;100345.95;1773508;79;21122;-74
2021/06/16 09:23:27;;;;;;;4.60;2.50;;;;;;;25.75;43.66;100346.21;1766005;79;21393;-74
2021/06/16 09:26:15;;;;;;;3.40;2.20;;;;;;;25.74;42.61;100336.44;1774116;79;21533;-74
2021/06/16 09:28:44;;;;;;;5.27;2.30;;;;;;;25.78;42.49;100334.55;1767707;79;21075;-74
2021/06/16 09:31:14;;;;;;;3.53;1.77;;;;;;;25.84;39.94;100335.85;1759292;79;20972;-73
2021/06/16 09:33:43;;;;;;;2.92;1.90;;;;;;;25.90;40.33;100337.12;1776477;79;21018;-74
2021/06/16 09:36:13;;;;;;;2.33;1.90;;;;;;;26.00;40.43;100332.20;1761759;80;21147;-74
2021/06/16 09:38:40;;;;;;;3.10;1.70;;;;;;;26.07;40.30;100332.31;1758297;79;21133;-72
2021/06/16 09:41:10;;;;;;;2.93;1.90;;;;;;;26.16;40.49;100326.00;1763574;79;21154;-74
2021/06/16 09:43:38;;;;;;;4.03;1.93;;;;;;;26.27;39.08;100325.57;1773399;80;21065;-72
2021/06/16 09:46:09;;;;;;;3.50;1.70;;;;;;;26.34;38.84;100322.14;1805991;78;21086;-73
2021/06/16 09:48:39;;;;;;;;;;;;;;;26.42;38.40;100320.52;1759545;79;21871;-73
2021/06/16 09:51:25;;;;;;;4.33;1.80;;;;;;;26.53;37.79;100319.31;1774518;79;20465;-73
2021/06/16 09:54:11;;;;;;;4.40;1.87;;;;;;;26.62;38.62;100325.87;1793482;79;21212;-71
2021/06/16 09:56:32;;;;;;;4.93;2.37;;;;;;;26.72;39.76;100323.88;1772712;78;21064;-73
2021/06/16 09:59:01;;;;;;;4.30;2.27;;;;;;;26.77;39.74;100330.38;1770150;79;21058;-73
2021/06/16 10:01:53;;;;;;;4.67;2.20;;;;;;;26.74;40.12;100325.64;1791154;79;21055;-74
2021/06/16 10:04:50;;;;;;;3.53;2.10;;;;;;;26.73;40.54;100328.19;1776968;79;21541;-74
2021/06/16 10:07:24;;;;;;;3.97;2.27;;;;;;;26.64;40.25;100324.93;1762089;80;21574;-74
2021/06/16 10:10:02;;;;;;;2.50;1.90;;;;;;;26.59;40.69;100321.95;1796854;79;21688;-74
2021/06/16 10:12:37;;;;;;;2.83;1.80;;;;;;;26.57;39.98;100314.66;1773768;80;21519;-73
2021/06/16 10:15:08;;;;;;;3.40;1.70;;;;;;;26.62;39.26;100312.17;1769377;79;21103;-74
2021/06/16 10:17:35;;;;;;;4.25;1.80;;;;;;;26.74;40.75;100310.58;1775807;80;23323;-74
2021/06/16 10:20:05;;;;;;;3.13;1.57;;;;;;;26.83;37.89;100308.34;1762508;80;21075;-74
2021/06/16 10:22:32;;;;;;;3.72;1.75;;;;;;;26.93;36.92;100308.27;1768763;79;20999;-73
2021/06/16 10:24:59;;;;;;;2.80;1.77;;;;;;;26.98;36.42;100307.12;1775268;80;21118;-72
2021/06/16 10:27:47;;;;;;;3.90;1.60;;;;;;;26.97;35.96;100302.82;1771805;79;22235;-73
2021/06/16 10:30:15;;;;;;;3.40;1.70;;;;;;;26.98;35.34;100303.02;1768330;80;21103;-73
2021/06/16 10:32:46;;;;;;;3.57;1.70;;;;;;;26.99;35.76;100304.03;1798471;78;21665;-73
2021/06/16 10:35:16;;;;;;;5.55;1.70;;;;;;;27.05;35.87;100304.49;1759857;80;21086;-73
2021/06/16 10:37:44;;;;;;;2.60;1.57;;;;;;;27.18;36.49;100305.84;1768424;79;21039;-74
2021/06/16 10:40:24;;;;;;;3.63;1.70;;;;;;;27.27;35.44;100304.93;1774000;79;21508;-73
2021/06/16 10:43:06;;;;;;;2.80;1.90;;;;;;;27.34;36.02;100300.09;1772790;79;21039;-74
2021/06/16 10:45:40;;;;;;;3.07;1.70;;;;;;;27.47;35.87;100301.98;1771334;80;21130;-73
2021/06/16 10:48:09;;;;;;;4.63;1.93;;;;;;;27.59;37.26;100308.58;1771145;79;21106;-74
2021/06/16 10:50:53;;;;;;;4.00;1.90;;;;;;;27.73;37.21;100300.45;1796570;77;21026;-75
2021/06/16 10:53:24;;;;;;;3.37;1.80;;;;;;;27.72;36.53;100304.96;1780470;79;22085;-72
2021/06/16 10:55:57;;;;;;;;;;;;;;;27.57;36.62;100309.52;1757508;80;21059;-74
2021/06/16 10:58:28;;;;;;;3.23;2.10;;;;;;;27.58;36.29;100315.23;1761632;79;20977;-73
2021/06/16 11:01:12;;;;;;;3.73;1.87;;;;;;;27.81;37.12;100304.87;1791571;78;21526;-73
2021/06/16 11:03:53;;;;;;;5.53;1.90;;;;;;;27.81;37.12;100304.87;1802878;79;21396;-74
2021/06/16 11:06:39;;;;;;;3.00;1.83;;;;;;;27.79;37.01;100302.30;1757449;80;21056;-73
2021/06/16 11:09:13;;;;;;;2.37;1.87;;;;;;;27.64;37.25;100293.70;1804704;79;21077;-73
2021/06/16 11:12:04;;;;;;;4.87;1.87;;;;;;;27.47;36.30;100300.62;1797215;78;20999;-73
2021/06/16 11:14:44;;;;;;;3.20;1.60;;;;;;;27.28;37.05;100307.12;1761333;79;21553;-73
2021/06/16 11:17:29;;;;;;;3.33;2.00;;;;;;;27.27;37.07;100291.22;1779526;78;21248;-72
2021/06/16 11:19:59;;;;;;;4.87;1.90;;;;;;;27.40;37.68;100286.84;1771434;79;21122;-72
2021/06/16 11:22:32;;;;;;;2.93;1.80;;;;;;;27.45;37.23;100295.52;1775430;78;21034;-75
2021/06/16 11:25:28;;;;;;;2.80;1.60;;;;;;;27.52;36.35;100296.17;1772603;78;21101;-75
2021/06/16 11:28:11;;;;;;;3.07;1.80;;;;;;;27.58;37.11;100300.15;1779277;78;21133;-74
2021/06/16 11:30:46;;;;;;;3.40;1.77;;;;;;;27.59;36.66;100298.97;1770012;79;21125;-75
2021/06/16 11:33:18;;;;;;;4.40;1.70;;;;;;;27.55;35.38;100297.57;1773679;79;21791;-74
2021/06/16 11:35:51;;;;;;;4.93;1.60;;;;;;;27.56;35.14;100294.23;1759841;80;21079;-73